»·PEaware :: N624MA KSMX-KBFL

N624MA :: KSMX-KBFL

FLIGHT INFORMATION

Flight Status: Arrived
Operator: Privately registered:
United States
More flights under this callsign
Pilot: Philippe D. (4793)
Aircraft: CESSNA 172 SKYHAWK
(C172)
More flights by this aircraft type
Origin: KSMX Santa Maria Pub/Capt Hancock
United States
Destination: KBFL Meadows
United States
More flights between these airports :: More routes between these airports
Route: +
File this flight plan on PilotEdge
Remarks: CAT 4
Altitude:
(Current/Filed)
0ft
Speed:
(Current/Filed)
105kts
Departed: 18-Sep-17 07:39 PM
Arrived: 18-Sep-17 08:22 PM
Distance/Time
Traveled:
76nm/0:43
Distance/Time
To Go:
Arrived

Flight Plot

Page will automatically refresh every two minutes.


Map Options




Map Legend


Flown Route
Filed Route
Departure Airport
Arrival Airport
Navaid (VOR, NDB)
Fix

Horizontal Profiles

Position Reports

Time Latitude Longitude Heading Altitude Ground
Speed
18-Sep-17 19:38 34.901247 -120.452668 229 265ft 6kts
18-Sep-17 19:39 34.898832 -120.450521 135 265ft 17kts
18-Sep-17 19:40 34.895349 -120.446351 135 265ft 14kts
18-Sep-17 19:41 34.893221 -120.444949 181 265ft 0kts
18-Sep-17 19:42 34.893190 -120.444950 182 265ft 2kts
18-Sep-17 19:43 34.898467 -120.452431 316 449ft 74kts
18-Sep-17 19:44 34.916147 -120.458022 80 1352ft 86kts
18-Sep-17 19:45 34.926082 -120.431097 63 2260ft 95kts
18-Sep-17 19:46 34.937654 -120.400571 66 2994ft 102kts
18-Sep-17 19:47 34.949069 -120.368794 65 3606ft 102kts
18-Sep-17 19:48 34.960477 -120.338021 65 4248ft 101kts
18-Sep-17 19:49 34.972288 -120.306454 65 4797ft 103kts
18-Sep-17 19:50 34.984282 -120.274475 65 5280ft 104kts
18-Sep-17 19:51 34.996362 -120.242211 65 5498ft 107kts
18-Sep-17 19:52 35.009270 -120.207757 65 5526ft 116kts
18-Sep-17 19:53 35.022802 -120.171641 65 5518ft 117kts
18-Sep-17 19:54 35.036502 -120.135038 65 5522ft 121kts
18-Sep-17 19:55 35.050209 -120.098377 65 5515ft 117kts
18-Sep-17 19:56 35.063757 -120.062086 65 5516ft 117kts
18-Sep-17 19:57 35.076914 -120.026810 65 5516ft 118kts
18-Sep-17 19:58 35.090621 -119.990016 65 5519ft 120kts
18-Sep-17 19:59 35.103876 -119.954401 65 5536ft 121kts
18-Sep-17 20:00 35.117735 -119.917132 65 5518ft 120kts
18-Sep-17 20:01 35.131408 -119.880307 65 5515ft 118kts
18-Sep-17 20:02 35.144849 -119.844070 65 5516ft 117kts
18-Sep-17 20:03 35.158429 -119.807422 65 5516ft 118kts
18-Sep-17 20:04 35.172076 -119.770545 65 5517ft 120kts
18-Sep-17 20:05 35.185439 -119.734405 65 5524ft 124kts
18-Sep-17 20:06 35.199665 -119.695868 65 5513ft 124kts
18-Sep-17 20:07 35.213862 -119.657361 65 5539ft 125kts
18-Sep-17 20:08 35.228210 -119.618398 65 5515ft 124kts
18-Sep-17 20:09 35.242594 -119.580238 64 5517ft 123kts
18-Sep-17 20:10 35.256670 -119.542352 65 5522ft 128kts
18-Sep-17 20:11 35.270938 -119.503477 65 5024ft 122kts
18-Sep-17 20:12 35.284977 -119.465161 65 4423ft 125kts
18-Sep-17 20:13 35.299388 -119.425797 65 3739ft 129kts
18-Sep-17 20:14 35.314136 -119.385475 65 3081ft 130kts
18-Sep-17 20:15 35.328621 -119.345800 66 2429ft 130kts
18-Sep-17 20:16 35.342856 -119.306778 65 2010ft 119kts
18-Sep-17 20:17 35.355406 -119.272370 66 2049ft 107kts
18-Sep-17 20:18 35.367509 -119.239077 66 2026ft 106kts
18-Sep-17 20:19 35.379566 -119.205900 66 2010ft 109kts
18-Sep-17 20:20 35.392267 -119.170914 66 1819ft 114kts
18-Sep-17 20:21 35.405179 -119.135315 66 1622ft 114kts
18-Sep-17 20:22 35.418306 -119.099867 65 1521ft 112kts
18-Sep-17 20:23 35.417159 -119.068904 145 1590ft 104kts
18-Sep-17 20:24 35.409968 -119.046432 39 1515ft 71kts
18-Sep-17 20:25 35.425551 -119.045973 311 812ft 58kts
18-Sep-17 20:26 35.435353 -119.058010 319 488ft 23kts
18-Sep-17 20:27 35.436307 -119.057060 111 494ft 11kts
18-Sep-17 20:28 35.432433 -119.052265 135 493ft 22kts
18-Sep-17 20:29 35.430076 -119.047780 70 494ft 11kts

Navigation Log

Ident Type
1. KSMX Airport
2. KBFL Airport